createdAt,value
2019-04-21T00:01:30.719Z,13.39
2019-04-21T00:05:57.149Z,13.32
2019-04-21T00:10:09.061Z,13.26
2019-04-21T00:14:00.989Z,13.20
2019-04-21T00:18:03.399Z,13.16
2019-04-21T00:22:19.434Z,13.13
2019-04-21T00:26:27.861Z,13.11
2019-04-21T00:30:40.089Z,13.08
2019-04-21T00:34:23.956Z,13.04
2019-04-21T00:39:03.063Z,12.95
2019-04-21T00:42:58.530Z,12.93
2019-04-21T00:47:00.654Z,12.94
2019-04-21T00:51:25.156Z,12.94
2019-04-21T00:55:41.012Z,12.91
2019-04-21T00:59:31.856Z,12.90
2019-04-21T01:03:37.296Z,12.87
2019-04-21T01:07:41.620Z,12.84
2019-04-21T01:11:49.576Z,12.80
2019-04-21T01:15:52.819Z,12.82
2019-04-21T01:19:57.235Z,12.78
2019-04-21T01:23:46.474Z,12.74
2019-04-21T01:28:09.947Z,12.72
2019-04-21T01:32:24.192Z,12.60
2019-04-21T01:36:24.152Z,12.55
2019-04-21T01:40:34.892Z,12.43
2019-04-21T01:48:46.046Z,12.15
2019-04-21T01:53:02.350Z,11.91
2019-04-21T01:57:07.565Z,11.91
2019-04-21T02:01:22.787Z,11.80
2019-04-21T02:05:32.640Z,11.73
2019-04-21T02:09:38.981Z,11.72
2019-04-21T02:13:53.767Z,11.74
2019-04-21T02:17:54.078Z,11.72
2019-04-21T02:21:51.361Z,11.72
2019-04-21T02:26:14.094Z,11.72
2019-04-21T02:30:22.340Z,11.61
2019-04-21T02:34:32.317Z,11.51
2019-04-21T02:43:07.247Z,11.41
2019-04-21T02:50:51.215Z,11.30
2019-04-21T02:55:06.276Z,11.27
2019-04-21T02:59:23.128Z,11.19
2019-04-21T03:07:42.804Z,10.99
2019-04-21T03:12:01.489Z,10.88
2019-04-21T03:16:04.941Z,10.78
2019-04-21T03:20:03.089Z,10.72
2019-04-21T03:24:31.185Z,10.66
2019-04-21T03:28:26.290Z,10.59
2019-04-21T03:36:50.340Z,10.58
2019-04-21T03:40:37.920Z,10.48
2019-04-21T03:44:45.642Z,10.37
2019-04-21T03:49:02.358Z,10.31
2019-04-21T04:01:22.201Z,10.22
2019-04-21T04:06:09.580Z,10.17
2019-04-21T04:10:13.508Z,10.17
2019-04-21T04:18:39.118Z,10.20
2019-04-21T04:22:49.692Z,10.17
2019-04-21T04:35:10.817Z,10.04
2019-04-21T04:39:42.765Z,10.04
2019-04-21T04:43:39.534Z,10.06
2019-04-21T04:47:46.633Z,10.06
2019-04-21T04:52:19.209Z,10.04
2019-04-21T04:55:58.870Z,10.02
2019-04-21T05:00:19.859Z,10.02
2019-04-21T05:04:16.055Z,10.03
2019-04-21T05:08:34.783Z,10.03
2019-04-21T05:12:24.486Z,10.06
2019-04-21T05:16:43.189Z,10.14
2019-04-21T05:20:29.798Z,10.23
2019-04-21T05:24:28.915Z,10.35
2019-04-21T05:28:32.847Z,10.49
2019-04-21T05:33:05.633Z,10.63
2019-04-21T05:37:35.180Z,10.81
2019-04-21T05:41:36.186Z,10.98
2019-04-21T05:45:51.848Z,11.18
2019-04-21T05:50:06.513Z,11.38
2019-04-21T05:54:23.086Z,11.56
2019-04-21T05:58:26.327Z,11.78
2019-04-21T06:02:30.611Z,11.96
2019-04-21T06:06:39.501Z,12.17
2019-04-21T06:10:47.710Z,12.36
2019-04-21T06:23:02.995Z,12.92
2019-04-21T06:27:13.417Z,13.06
2019-04-21T06:31:30.784Z,13.22
2019-04-21T06:36:07.320Z,13.39
2019-04-21T06:40:12.736Z,13.52
2019-04-21T06:44:01.346Z,13.67
2019-04-21T06:48:11.220Z,13.85
2019-04-21T06:52:29.888Z,14.05
2019-04-21T06:56:23.806Z,14.20
2019-04-21T07:00:18.539Z,14.37
2019-04-21T07:04:31.744Z,14.46
2019-04-21T07:08:51.487Z,14.55
2019-04-21T07:12:39.236Z,14.64
2019-04-21T07:20:53.530Z,14.81
2019-04-21T07:25:05.682Z,14.88
2019-04-21T07:29:14.227Z,14.99
2019-04-21T07:33:44.785Z,15.10
2019-04-21T07:37:25.576Z,15.21
2019-04-21T07:41:22.740Z,15.34
2019-04-21T07:45:31.850Z,15.53
2019-04-21T07:49:57.364Z,15.64
2019-04-21T07:54:28.711Z,15.84
2019-04-21T07:58:10.786Z,16.01
2019-04-21T08:02:20.193Z,16.10
2019-04-21T08:06:31.896Z,16.18
2019-04-21T08:10:28.521Z,16.37
2019-04-21T08:14:35.289Z,16.53
2019-04-21T08:26:57.407Z,16.94
2019-04-21T08:31:01.884Z,17.05
2019-04-21T08:35:48.579Z,17.12
2019-04-21T08:39:12.741Z,17.30
2019-04-21T08:43:30.752Z,17.41
2019-04-21T08:47:25.627Z,17.55
2019-04-21T09:00:41.681Z,17.92
2019-04-21T09:04:39.625Z,17.99
2019-04-21T09:08:45.930Z,18.06
2019-04-21T09:12:56.292Z,18.16
2019-04-21T09:16:53.381Z,18.24
2019-04-21T09:21:08.909Z,18.33
2019-04-21T09:25:09.549Z,18.39
2019-04-21T09:29:05.910Z,18.53
2019-04-21T09:33:05.106Z,18.67
2019-04-21T09:37:20.802Z,18.76
2019-04-21T09:41:17.599Z,18.91
2019-04-21T09:45:22.546Z,19.03
2019-04-21T09:49:30.886Z,19.21
2019-04-21T09:53:36.434Z,19.37
2019-04-21T09:57:46.505Z,19.44
2019-04-21T10:01:57.171Z,19.48
2019-04-21T10:05:51.871Z,19.53
2019-04-21T10:09:56.337Z,19.63
2019-04-21T10:14:00.981Z,19.74
2019-04-21T10:18:10.836Z,19.77
2019-04-21T10:22:15.081Z,19.77
2019-04-21T10:26:19.394Z,19.86
2019-04-21T10:30:24.629Z,19.97
2019-04-21T10:34:29.394Z,20.10
2019-04-21T10:38:42.337Z,20.21
2019-04-21T10:42:40.424Z,20.28
2019-04-21T10:46:47.355Z,20.40
2019-04-21T10:50:50.848Z,20.49
2019-04-21T10:55:12.495Z,20.61
2019-04-21T10:59:02.434Z,20.72
2019-04-21T11:03:25.004Z,20.76
2019-04-21T11:08:07.660Z,20.72
2019-04-21T11:11:59.938Z,20.69
2019-04-21T11:16:05.486Z,20.75
2019-04-21T11:20:10.830Z,20.78
2019-04-21T11:24:16.456Z,20.81
2019-04-21T11:28:22.783Z,20.89
2019-04-21T11:32:27.391Z,20.94
2019-04-21T11:36:33.230Z,20.92
2019-04-21T11:40:38.039Z,21.02
2019-04-21T11:44:42.392Z,21.12
2019-04-21T11:48:46.632Z,21.19
2019-04-21T11:52:50.850Z,21.31
2019-04-21T11:56:55.073Z,21.42
2019-04-21T12:01:00.709Z,21.48
2019-04-21T12:05:05.574Z,21.43
2019-04-21T12:09:10.481Z,21.44
2019-04-21T12:13:16.343Z,21.40
2019-04-21T12:17:20.646Z,21.45
2019-04-21T12:21:25.511Z,21.52
2019-04-21T12:25:34.828Z,21.58
2019-04-21T12:29:39.897Z,21.56
2019-04-21T12:33:56.193Z,21.63
2019-04-21T12:38:00.647Z,21.78
2019-04-21T12:42:04.982Z,21.85
2019-04-21T12:46:09.733Z,21.85
2019-04-21T12:50:14.876Z,21.80
2019-04-21T12:54:19.671Z,21.78
2019-04-21T12:58:23.973Z,21.79
2019-04-21T13:02:29.548Z,21.83
2019-04-21T13:06:33.946Z,21.86
2019-04-21T13:10:38.223Z,21.87
2019-04-21T13:14:42.425Z,21.86
2019-04-21T13:18:47.129Z,21.80
2019-04-21T13:22:52.394Z,21.83
2019-04-21T13:26:59.556Z,21.87
2019-04-21T13:31:04.293Z,21.91
2019-04-21T13:35:10.712Z,21.91
2019-04-21T13:40:01.758Z,21.86
2019-04-21T13:43:45.441Z,21.88
2019-04-21T13:47:50.376Z,21.83
2019-04-21T13:51:56.023Z,21.80
2019-04-21T13:56:00.552Z,21.79
2019-04-21T14:00:05.891Z,21.83
2019-04-21T14:04:11.522Z,21.81
2019-04-21T14:08:15.741Z,21.75
2019-04-21T14:12:21.189Z,21.70
2019-04-21T14:16:26.615Z,21.65
2019-04-21T14:20:33.298Z,21.61
2019-04-21T14:24:38.698Z,21.55
2019-04-21T14:28:43.064Z,21.55
2019-04-21T14:32:47.709Z,21.58
2019-04-21T14:36:52.964Z,21.54
2019-04-21T14:40:57.168Z,21.54
2019-04-21T14:45:03.092Z,21.55
2019-04-21T14:49:35.293Z,21.49
2019-04-21T14:54:01.802Z,21.44
2019-04-21T14:58:07.342Z,21.44
2019-04-21T15:02:11.820Z,21.49
2019-04-21T15:06:16.070Z,21.47
2019-04-21T15:10:24.321Z,21.41
2019-04-21T15:14:26.769Z,21.38
2019-04-21T15:18:30.949Z,21.35
2019-04-21T15:22:36.432Z,21.30
2019-04-21T15:26:41.856Z,21.30
2019-04-21T15:30:47.017Z,21.29
2019-04-21T15:34:52.020Z,21.26
2019-04-21T15:38:57.938Z,21.22
2019-04-21T15:43:02.454Z,21.22
2019-04-21T15:47:08.106Z,21.21
2019-04-21T15:51:13.628Z,21.20
2019-04-21T15:55:42.378Z,21.20
2019-04-21T15:59:55.105Z,21.21
2019-04-21T16:04:00.939Z,21.20
2019-04-21T16:08:05.888Z,21.20
2019-04-21T16:12:11.598Z,21.19
2019-04-21T16:16:16.736Z,21.17
2019-04-21T16:20:21.891Z,21.16
2019-04-21T16:24:27.276Z,21.15
2019-04-21T16:28:33.200Z,21.11
2019-04-21T16:32:38.393Z,21.08
2019-04-21T16:36:43.560Z,21.07
2019-04-21T16:40:55.335Z,21.04
2019-04-21T16:44:54.800Z,21.00
2019-04-21T16:48:59.987Z,20.96
2019-04-21T16:53:17.367Z,20.93
2019-04-21T16:57:30.016Z,20.87
2019-04-21T17:01:36.443Z,20.83
2019-04-21T17:05:42.277Z,20.77
2019-04-21T17:09:46.740Z,20.68
2019-04-21T17:13:51.933Z,20.65
2019-04-21T17:18:16.235Z,20.63
2019-04-21T17:22:03.821Z,20.57
2019-04-21T17:26:08.953Z,20.50
2019-04-21T17:30:14.794Z,20.42
2019-04-21T17:34:24.668Z,20.34
2019-04-21T17:38:26.121Z,20.24
2019-04-21T17:42:42.164Z,20.12
2019-04-21T17:46:46.044Z,20.03
2019-04-21T17:50:51.562Z,19.93
2019-04-21T17:55:14.070Z,19.81
2019-04-21T17:59:46.128Z,19.68
2019-04-21T18:03:58.984Z,19.56
2019-04-21T18:07:45.401Z,19.44
2019-04-21T18:11:51.125Z,19.32
2019-04-21T18:15:51.675Z,19.19
2019-04-21T18:19:45.781Z,19.08
2019-04-21T18:24:01.327Z,19.01
2019-04-21T18:27:58.657Z,18.94
2019-04-21T18:32:02.999Z,18.87
2019-04-21T18:36:32.395Z,18.78
2019-04-21T18:40:36.867Z,18.70
2019-04-21T18:45:40.370Z,18.63
2019-04-21T18:49:21.591Z,18.53
2019-04-21T18:53:44.824Z,18.37
2019-04-21T18:57:42.851Z,18.25
2019-04-21T19:01:51.536Z,18.15
2019-04-21T19:05:54.479Z,18.03
2019-04-21T19:10:22.336Z,17.88
2019-04-21T19:14:35.650Z,17.75
2019-04-21T19:22:34.198Z,17.56
2019-04-21T19:26:46.796Z,17.45
2019-04-21T19:30:57.502Z,17.35
2019-04-21T19:34:40.404Z,17.24
2019-04-21T19:38:54.093Z,17.16
2019-04-21T19:43:00.371Z,17.02
2019-04-21T19:47:13.853Z,16.97
2019-04-21T19:51:15.184Z,16.87
2019-04-21T19:55:06.610Z,16.80
2019-04-21T19:59:18.595Z,16.68
2019-04-21T20:03:16.926Z,16.60
2019-04-21T20:07:38.128Z,16.48
2019-04-21T20:11:41.967Z,16.35
2019-04-21T20:15:54.029Z,16.25
2019-04-21T20:19:40.282Z,16.17
2019-04-21T20:23:45.163Z,16.13
2019-04-21T20:28:00.701Z,16.11
2019-04-21T20:32:20.047Z,16.09
2019-04-21T20:36:21.057Z,16.02
2019-04-21T20:40:21.799Z,15.87
2019-04-21T20:44:29.520Z,15.83
2019-04-21T20:48:34.445Z,15.74
2019-04-21T20:52:50.889Z,15.60
2019-04-21T20:56:49.710Z,15.53
2019-04-21T21:01:19.004Z,15.51
2019-04-21T21:04:52.693Z,15.44
2019-04-21T21:09:06.121Z,15.31
2019-04-21T21:13:21.197Z,15.20
2019-04-21T21:17:36.096Z,15.12
2019-04-21T21:21:24.439Z,15.01
2019-04-21T21:25:41.811Z,14.92
2019-04-21T21:29:41.857Z,14.84
2019-04-21T21:33:50.662Z,14.82
2019-04-21T21:37:54.898Z,14.81
2019-04-21T21:41:45.213Z,14.77
2019-04-21T21:45:49.953Z,14.72
2019-04-21T21:50:01.245Z,14.71
2019-04-21T21:53:59.029Z,14.68
2019-04-21T21:58:05.814Z,14.63
2019-04-21T22:02:16.661Z,14.56
2019-04-21T22:06:21.513Z,14.50
2019-04-21T22:10:23.175Z,14.39
2019-04-21T22:14:33.987Z,14.30
2019-04-21T22:18:56.789Z,14.25
2019-04-21T22:22:53.620Z,14.20
2019-04-21T22:26:47.298Z,14.17
2019-04-21T22:30:54.675Z,14.18
2019-04-21T22:35:01.980Z,14.16
2019-04-21T22:39:21.006Z,14.07
2019-04-21T22:43:19.656Z,14.01
2019-04-21T22:47:22.004Z,13.93
2019-04-21T22:51:30.266Z,13.87
2019-04-21T22:55:31.623Z,13.83
2019-04-21T22:59:35.647Z,13.78
2019-04-21T23:03:50.152Z,13.74
2019-04-21T23:07:50.202Z,13.70
2019-04-21T23:11:56.230Z,13.68
2019-04-21T23:16:01.315Z,13.63
2019-04-21T23:20:27.800Z,13.61
2019-04-21T23:24:35.503Z,13.52
2019-04-21T23:28:42.206Z,13.45
2019-04-21T23:32:35.961Z,13.33
2019-04-21T23:36:32.231Z,13.23
2019-04-21T23:40:39.783Z,13.00
2019-04-21T23:44:47.508Z,13.00
2019-04-21T23:49:02.357Z,12.85
2019-04-21T23:52:55.130Z,12.67
2019-04-21T23:57:05.046Z,12.60
